createdAt,value
2023-04-09T00:00:12.726Z,9.20
2023-04-09T00:02:39.790Z,9.20
2023-04-09T00:05:08.125Z,9.10
2023-04-09T00:07:34.894Z,9.10
2023-04-09T00:10:01.709Z,9.10
2023-04-09T00:12:30.234Z,9.10
2023-04-09T00:43:44.764Z,9.00
2023-04-09T00:46:11.673Z,9.10
2023-04-09T00:48:38.820Z,9.10
2023-04-09T00:51:05.830Z,9.00
2023-04-09T00:53:32.721Z,9.00
2023-04-09T00:55:59.653Z,9.00
2023-04-09T00:58:27.168Z,9.00
2023-04-09T01:00:54.043Z,9.00
2023-04-09T01:03:20.880Z,9.00
2023-04-09T01:05:54.916Z,9.00
2023-04-09T01:08:49.237Z,9.00
2023-04-09T01:11:31.124Z,9.00
2023-04-09T01:14:12.975Z,9.00
2023-04-09T01:16:44.533Z,9.00
2023-04-09T01:19:31.530Z,9.00
2023-04-09T01:21:59.131Z,9.00
2023-04-09T01:24:58.765Z,9.00
2023-04-09T01:28:11.449Z,9.00
2023-04-09T01:30:40.518Z,9.00
2023-04-09T01:33:08.436Z,9.00
2023-04-09T01:35:35.331Z,9.00
2023-04-09T01:38:03.914Z,9.00
2023-04-09T01:40:30.890Z,9.00
2023-04-09T01:43:00.059Z,8.90
2023-04-09T01:45:27.329Z,8.90
2023-04-09T01:47:55.861Z,8.80
2023-04-09T01:50:23.152Z,8.80
2023-04-09T01:52:50.249Z,8.80
2023-04-09T01:55:17.239Z,8.70
2023-04-09T01:57:44.152Z,8.60
2023-04-09T02:00:11.725Z,8.60
2023-04-09T02:02:56.820Z,8.50
2023-04-09T02:05:27.225Z,8.50
2023-04-09T02:07:57.127Z,8.40
2023-04-09T02:10:31.040Z,8.40
2023-04-09T02:13:01.455Z,8.30
2023-04-09T02:15:30.737Z,8.20
2023-04-09T02:17:57.578Z,8.10
2023-04-09T02:20:24.779Z,8.00
2023-04-09T02:22:51.439Z,7.90
2023-04-09T02:25:18.331Z,7.80
2023-04-09T02:27:45.197Z,7.80
2023-04-09T02:30:12.285Z,7.70
2023-04-09T02:32:38.991Z,7.50
2023-04-09T02:35:06.489Z,7.40
2023-04-09T02:37:33.141Z,7.40
2023-04-09T02:40:00.276Z,7.30
2023-04-09T02:42:27.091Z,7.30
2023-04-09T03:28:08.746Z,6.40
2023-04-09T03:30:35.680Z,6.20
2023-04-09T03:33:02.469Z,6.20
2023-04-09T03:35:29.343Z,6.20
2023-04-09T03:37:56.206Z,6.20
2023-04-09T03:40:23.040Z,6.10
2023-04-09T03:42:49.883Z,6.00
2023-04-09T03:45:16.820Z,6.00
2023-04-09T03:47:43.628Z,5.90
2023-04-09T03:50:10.857Z,5.90
2023-04-09T03:52:37.690Z,5.90
2023-04-09T03:55:05.111Z,5.80
2023-04-09T03:57:31.910Z,5.70
2023-04-09T03:59:58.682Z,5.70
2023-04-09T04:02:27.277Z,5.60
2023-04-09T04:04:54.189Z,5.60
2023-04-09T04:07:21.089Z,5.60
2023-04-09T04:09:47.809Z,5.50
2023-04-09T04:12:14.503Z,5.50
2023-04-09T04:14:41.404Z,5.50
2023-04-09T04:17:08.246Z,5.40
2023-04-09T04:19:35.244Z,5.40
2023-04-09T04:22:02.044Z,5.40
2023-04-09T04:24:28.917Z,5.40
2023-04-09T04:26:56.226Z,5.40
2023-04-09T04:29:23.072Z,5.30
2023-04-09T04:31:49.821Z,5.30
2023-04-09T04:34:16.710Z,5.20
2023-04-09T04:36:43.483Z,5.20
2023-04-09T04:39:10.294Z,5.10
2023-04-09T04:41:37.023Z,5.20
2023-04-09T04:44:04.009Z,5.10
2023-04-09T04:46:30.883Z,5.10
2023-04-09T04:48:57.946Z,5.20
2023-04-09T04:51:24.778Z,5.10
2023-04-09T04:53:51.618Z,5.10
2023-04-09T04:56:18.367Z,5.10
2023-04-09T04:58:45.601Z,5.10
2023-04-09T05:01:12.417Z,5.10
2023-04-09T05:03:41.288Z,5.10
2023-04-09T05:06:08.149Z,5.10
2023-04-09T05:08:34.902Z,5.20
2023-04-09T05:11:01.743Z,5.20
2023-04-09T05:13:28.603Z,5.10
2023-04-09T05:15:55.665Z,5.10
2023-04-09T05:18:22.466Z,5.10
2023-04-09T05:20:49.215Z,5.10
2023-04-09T05:23:16.346Z,5.20
2023-04-09T05:25:43.604Z,5.10
2023-04-09T05:28:11.736Z,5.10
2023-04-09T05:30:38.548Z,5.20
2023-04-09T05:33:05.409Z,5.20
2023-04-09T05:35:32.201Z,5.20
2023-04-09T05:37:59.057Z,5.20
2023-04-09T05:40:26.034Z,5.20
2023-04-09T05:42:52.890Z,5.20
2023-04-09T05:45:19.624Z,5.20
2023-04-09T05:47:46.521Z,5.20
2023-04-09T05:50:13.460Z,5.20
2023-04-09T05:52:40.252Z,5.30
2023-04-09T05:55:08.139Z,5.30
2023-04-09T05:57:35.393Z,5.30
2023-04-09T06:00:02.320Z,5.30
2023-04-09T06:02:29.227Z,5.40
2023-04-09T06:04:56.302Z,5.40
2023-04-09T06:07:23.135Z,5.50
2023-04-09T06:09:49.941Z,5.50
2023-04-09T06:12:17.480Z,5.60
2023-04-09T06:14:44.136Z,5.60
2023-04-09T06:17:11.006Z,5.70
2023-04-09T06:19:37.805Z,5.80
2023-04-09T06:22:04.586Z,5.90
2023-04-09T06:24:33.234Z,6.00
2023-04-09T06:27:00.478Z,6.00
2023-04-09T06:29:27.339Z,6.10
2023-04-09T06:31:54.148Z,6.20
2023-04-09T06:34:21.173Z,6.20
2023-04-09T06:36:48.002Z,6.30
2023-04-09T06:39:14.785Z,6.40
2023-04-09T06:41:41.662Z,6.50
2023-04-09T06:44:08.439Z,6.50
2023-04-09T06:46:35.485Z,6.60
2023-04-09T06:49:02.192Z,6.80
2023-04-09T06:51:28.922Z,6.80
2023-04-09T06:53:55.877Z,6.90
2023-04-09T06:56:22.786Z,7.00
2023-04-09T06:58:50.058Z,7.00
2023-04-09T07:01:17.477Z,7.10
2023-04-09T07:03:44.641Z,7.20
2023-04-09T07:06:11.451Z,7.30
2023-04-09T07:08:38.287Z,7.50
2023-04-09T07:11:05.081Z,7.60
2023-04-09T07:13:33.119Z,7.70
2023-04-09T07:16:00.345Z,7.70
2023-04-09T07:18:34.049Z,7.80
2023-04-09T07:21:01.032Z,7.90
2023-04-09T07:23:27.778Z,8.00
2023-04-09T07:25:54.666Z,8.00
2023-04-09T07:28:21.658Z,8.10
2023-04-09T07:30:48.509Z,8.20
2023-04-09T07:33:15.451Z,8.30
2023-04-09T07:35:43.213Z,8.40
2023-04-09T07:38:09.972Z,8.50
2023-04-09T07:40:36.832Z,8.50
2023-04-09T07:43:04.533Z,8.60
2023-04-09T07:45:31.336Z,8.70
2023-04-09T07:47:58.120Z,8.70
2023-04-09T07:50:24.993Z,8.80
2023-04-09T07:52:51.783Z,9.00
2023-04-09T07:55:18.972Z,9.10
2023-04-09T07:57:45.889Z,9.10
2023-04-09T08:00:13.044Z,9.20
2023-04-09T08:02:40.073Z,9.20
2023-04-09T08:05:07.918Z,9.30
2023-04-09T08:07:34.775Z,9.40
2023-04-09T08:10:01.676Z,9.50
2023-04-09T08:12:28.657Z,9.60
2023-04-09T08:14:55.448Z,9.80
2023-04-09T08:17:22.520Z,9.90
2023-04-09T08:19:49.849Z,9.90
2023-04-09T08:22:16.714Z,10.00
2023-04-09T08:24:43.852Z,10.10
2023-04-09T08:27:10.951Z,10.10
2023-04-09T08:29:39.236Z,10.20
2023-04-09T08:32:06.222Z,10.30
2023-04-09T08:34:33.103Z,10.40
2023-04-09T08:37:00.422Z,10.50
2023-04-09T08:39:27.244Z,10.60
2023-04-09T08:41:57.884Z,10.60
2023-04-09T08:44:26.686Z,10.70
2023-04-09T08:46:54.239Z,10.80
2023-04-09T08:49:21.316Z,10.90
2023-04-09T08:51:49.194Z,11.30
2023-04-09T08:54:18.789Z,11.70
2023-04-09T08:56:46.340Z,12.30
2023-04-09T08:59:18.073Z,13.00
2023-04-09T09:01:49.455Z,13.60
2023-04-09T09:04:16.531Z,14.60
2023-04-09T09:06:44.283Z,15.30
2023-04-09T09:09:14.163Z,15.50
2023-04-09T09:11:46.059Z,15.60
2023-04-09T09:14:15.450Z,16.30
2023-04-09T09:16:44.656Z,16.90
2023-04-09T09:19:35.813Z,17.50
2023-04-09T09:22:08.397Z,18.20
2023-04-09T09:24:49.219Z,18.60
2023-04-09T09:27:39.556Z,18.80
2023-04-09T09:30:08.607Z,19.10
2023-04-09T09:32:35.621Z,19.10
2023-04-09T09:35:10.329Z,18.60
2023-04-09T09:37:37.155Z,18.90
2023-04-09T09:40:04.477Z,19.10
2023-04-09T09:42:31.878Z,19.70
2023-04-09T09:44:59.343Z,19.70
2023-04-09T09:47:29.373Z,20.40
2023-04-09T09:49:56.090Z,20.70
2023-04-09T09:52:29.089Z,20.70
2023-04-09T09:55:00.369Z,21.30
2023-04-09T09:57:30.613Z,21.30
2023-04-09T10:00:09.220Z,21.10
2023-04-09T10:02:53.933Z,20.30
2023-04-09T10:05:25.018Z,19.90
2023-04-09T10:07:53.391Z,19.60
2023-04-09T10:10:22.807Z,19.60
2023-04-09T10:12:51.233Z,19.30
2023-04-09T10:15:19.783Z,19.60
2023-04-09T10:17:46.626Z,19.00
2023-04-09T10:20:24.174Z,19.10
2023-04-09T10:22:53.461Z,19.30
2023-04-09T10:25:20.788Z,19.50
2023-04-09T10:28:00.169Z,19.70
2023-04-09T10:30:37.279Z,19.60
2023-04-09T10:33:13.786Z,19.20
2023-04-09T10:35:40.755Z,19.10
2023-04-09T10:38:09.654Z,19.10
2023-04-09T10:40:48.125Z,19.20
2023-04-09T10:43:19.729Z,19.00
2023-04-09T10:45:48.181Z,19.00
2023-04-09T10:48:16.169Z,19.40
2023-04-09T10:50:44.683Z,18.70
2023-04-09T10:53:25.705Z,18.10
2023-04-09T10:55:54.147Z,17.50
2023-04-09T10:58:21.076Z,17.60
2023-04-09T11:00:49.803Z,18.30
2023-04-09T11:03:25.336Z,19.20
2023-04-09T11:05:56.747Z,19.20
2023-04-09T11:08:23.854Z,19.10
2023-04-09T11:10:53.398Z,19.30
2023-04-09T11:13:21.897Z,19.70
2023-04-09T11:15:48.824Z,20.10
2023-04-09T11:18:20.271Z,20.30
2023-04-09T11:20:47.116Z,20.40
2023-04-09T11:23:14.432Z,19.80
2023-04-09T11:25:41.363Z,19.50
2023-04-09T11:28:09.723Z,18.80
2023-04-09T11:30:37.478Z,18.40
2023-04-09T11:33:04.348Z,18.50
2023-04-09T11:35:34.464Z,18.80
2023-04-09T11:38:01.350Z,19.20
2023-04-09T11:40:29.206Z,19.00
2023-04-09T11:42:56.909Z,18.80
2023-04-09T11:45:28.411Z,18.90
2023-04-09T11:47:55.555Z,19.30
2023-04-09T11:50:22.923Z,19.90
2023-04-09T11:52:49.889Z,19.70
2023-04-09T11:55:29.803Z,19.70
2023-04-09T11:58:03.358Z,19.60
2023-04-09T12:00:32.398Z,19.20
2023-04-09T12:03:04.816Z,19.00
2023-04-09T12:05:34.023Z,18.80
2023-04-09T12:08:07.140Z,18.70
2023-04-09T12:10:37.556Z,18.80
2023-04-09T12:13:10.373Z,18.60
2023-04-09T12:15:41.410Z,18.80
2023-04-09T12:18:10.090Z,19.10
2023-04-09T12:20:39.604Z,19.00
2023-04-09T12:23:07.905Z,18.90
2023-04-09T12:25:36.994Z,18.80
2023-04-09T12:28:06.093Z,18.80
2023-04-09T12:30:33.857Z,18.30
2023-04-09T12:33:01.451Z,18.10
2023-04-09T12:35:28.430Z,17.80
2023-04-09T12:37:55.533Z,18.00
2023-04-09T12:40:22.658Z,18.50
2023-04-09T12:42:49.701Z,18.90
2023-04-09T12:45:18.889Z,19.10
2023-04-09T12:47:46.043Z,19.00
2023-04-09T12:50:14.945Z,19.10
2023-04-09T12:52:42.923Z,19.50
2023-04-09T12:55:12.612Z,19.50
2023-04-09T12:57:44.036Z,19.40
2023-04-09T13:00:11.963Z,19.60
2023-04-09T13:02:39.148Z,19.70
2023-04-09T13:05:06.566Z,19.70
2023-04-09T13:07:33.401Z,19.80
2023-04-09T13:10:00.334Z,20.00
2023-04-09T13:12:27.571Z,19.90
2023-04-09T13:14:55.640Z,19.90
2023-04-09T13:17:22.842Z,20.00
2023-04-09T13:19:51.549Z,19.90
2023-04-09T13:22:19.109Z,19.50
2023-04-09T13:24:46.061Z,19.40
2023-04-09T13:27:12.844Z,19.50
2023-04-09T13:29:39.712Z,19.70
2023-04-09T13:32:10.804Z,19.60
2023-04-09T13:34:39.418Z,19.60
2023-04-09T13:37:06.829Z,19.50
2023-04-09T13:39:33.624Z,19.60
2023-04-09T13:42:05.317Z,19.50
2023-04-09T13:44:37.017Z,19.50
2023-04-09T13:47:03.794Z,19.40
2023-04-09T13:49:30.802Z,19.20
2023-04-09T13:51:57.683Z,19.10
2023-04-09T13:54:24.443Z,18.70
2023-04-09T13:56:51.562Z,18.60
2023-04-09T13:59:18.511Z,18.50
2023-04-09T14:01:45.508Z,18.60
2023-04-09T14:04:12.720Z,19.60
2023-04-09T14:06:39.601Z,20.90
2023-04-09T14:09:06.391Z,21.90
2023-04-09T14:11:33.258Z,22.80
2023-04-09T14:14:00.171Z,23.30
2023-04-09T14:16:28.082Z,23.60
2023-04-09T14:18:55.081Z,23.90
2023-04-09T14:21:22.079Z,23.30
2023-04-09T14:23:48.843Z,23.20
2023-04-09T14:26:16.348Z,23.60
2023-04-09T14:28:47.219Z,23.30
2023-04-09T14:31:14.396Z,23.80
2023-04-09T14:33:41.548Z,23.70
2023-04-09T14:36:08.506Z,23.80
2023-04-09T14:38:35.468Z,23.70
2023-04-09T14:41:02.203Z,24.10
2023-04-09T14:43:29.395Z,24.40
2023-04-09T14:45:56.180Z,24.20
2023-04-09T14:48:22.842Z,24.20
2023-04-09T14:50:51.701Z,24.90
2023-04-09T14:53:18.713Z,25.00
2023-04-09T14:55:45.675Z,24.60
2023-04-09T14:58:12.567Z,24.40
2023-04-09T15:00:39.409Z,24.40
2023-04-09T15:03:06.412Z,24.50
2023-04-09T15:05:33.456Z,24.90
2023-04-09T15:08:00.487Z,25.40
2023-04-09T15:10:27.274Z,25.30
2023-04-09T15:12:54.124Z,25.00
2023-04-09T15:15:21.057Z,24.80
2023-04-09T15:17:47.933Z,24.70
2023-04-09T15:20:14.847Z,23.90
2023-04-09T15:22:41.735Z,24.10
2023-04-09T15:25:08.730Z,24.10
2023-04-09T15:27:35.854Z,23.70
2023-04-09T15:30:02.618Z,23.70
2023-04-09T15:32:30.952Z,23.70
2023-04-09T15:34:57.772Z,23.20
2023-04-09T15:37:24.561Z,23.20
2023-04-09T15:39:51.480Z,23.10
2023-04-09T15:42:22.479Z,22.70
2023-04-09T15:44:50.484Z,22.70
2023-04-09T15:47:17.908Z,23.10
2023-04-09T15:49:44.652Z,23.30
2023-04-09T15:52:11.474Z,23.80
2023-04-09T15:54:38.172Z,23.60
2023-04-09T15:57:05.075Z,23.10
2023-04-09T15:59:31.991Z,22.60
2023-04-09T16:01:58.992Z,23.00
2023-04-09T16:04:26.826Z,22.80
2023-04-09T16:06:55.425Z,22.70
2023-04-09T16:09:22.755Z,22.10
2023-04-09T16:11:51.057Z,21.90
2023-04-09T16:14:18.121Z,22.10
2023-04-09T16:16:49.482Z,22.40
2023-04-09T16:19:21.303Z,22.20
2023-04-09T16:21:49.131Z,22.40
2023-04-09T16:24:15.950Z,22.20
2023-04-09T16:26:44.325Z,22.60
2023-04-09T16:29:11.751Z,22.90
2023-04-09T16:31:41.954Z,22.60
2023-04-09T16:34:08.906Z,22.50
2023-04-09T16:36:37.068Z,22.40
2023-04-09T16:39:04.874Z,22.40
2023-04-09T16:41:31.871Z,22.10
2023-04-09T16:43:58.660Z,21.70
2023-04-09T16:46:25.558Z,21.70
2023-04-09T16:48:52.577Z,21.80
2023-04-09T16:51:19.795Z,21.80
2023-04-09T16:53:46.884Z,21.70
2023-04-09T16:56:14.738Z,21.60
2023-04-09T16:58:41.572Z,21.60
2023-04-09T17:01:08.358Z,21.50
2023-04-09T17:03:35.401Z,21.50
2023-04-09T17:06:02.660Z,21.20
2023-04-09T17:08:29.444Z,20.30
2023-04-09T17:11:02.004Z,20.50
2023-04-09T17:13:35.175Z,20.10
2023-04-09T17:16:02.889Z,19.70
2023-04-09T17:18:29.951Z,19.70
2023-04-09T17:20:57.047Z,19.20
2023-04-09T17:23:23.924Z,19.00
2023-04-09T17:25:50.688Z,18.80
2023-04-09T17:28:18.903Z,18.50
2023-04-09T17:30:46.106Z,18.20
2023-04-09T17:33:13.325Z,17.90
2023-04-09T17:35:41.657Z,17.70
2023-04-09T17:38:08.536Z,17.60
2023-04-09T17:40:35.455Z,17.40
2023-04-09T17:43:02.248Z,17.10
2023-04-09T17:45:29.045Z,17.20
2023-04-09T17:47:55.887Z,17.20
2023-04-09T17:50:22.931Z,17.10
2023-04-09T17:52:50.746Z,16.70
2023-04-09T17:55:17.700Z,16.70
2023-04-09T17:57:44.659Z,16.60
2023-04-09T18:00:12.113Z,16.50
2023-04-09T18:02:39.364Z,16.10
2023-04-09T18:05:07.247Z,16.00
2023-04-09T18:07:34.561Z,16.00
2023-04-09T18:10:02.983Z,15.70
2023-04-09T18:12:29.995Z,15.40
2023-04-09T18:14:56.791Z,15.10
2023-04-09T18:17:23.569Z,15.00
2023-04-09T18:19:53.017Z,14.80
2023-04-09T18:22:19.927Z,14.70
2023-04-09T18:24:47.060Z,14.40
2023-04-09T18:27:13.854Z,14.20
2023-04-09T18:29:40.688Z,14.20
2023-04-09T18:32:07.533Z,14.00
2023-04-09T18:34:34.488Z,13.80
2023-04-09T18:37:01.492Z,13.70
2023-04-09T18:39:28.355Z,13.60
2023-04-09T18:41:55.157Z,13.50
2023-04-09T18:44:21.821Z,13.40
2023-04-09T18:46:48.636Z,13.40
2023-04-09T18:49:15.485Z,13.30
2023-04-09T18:51:42.322Z,13.20
2023-04-09T18:54:09.051Z,13.10
2023-04-09T18:56:36.474Z,13.10
2023-04-09T18:59:03.270Z,12.90
2023-04-09T19:01:30.042Z,12.90
2023-04-09T19:03:56.981Z,12.70
2023-04-09T19:06:25.538Z,12.60
2023-04-09T19:08:57.972Z,12.50
2023-04-09T19:11:25.958Z,12.40
2023-04-09T19:13:52.757Z,12.40
2023-04-09T19:16:20.867Z,12.40
2023-04-09T19:18:47.864Z,12.30
2023-04-09T19:21:14.649Z,12.20
2023-04-09T19:23:41.573Z,12.10
2023-04-09T19:26:08.350Z,12.00
2023-04-09T19:28:35.103Z,11.90
2023-04-09T19:31:03.564Z,11.90
2023-04-09T19:33:30.810Z,11.90
2023-04-09T19:35:57.798Z,11.80
2023-04-09T19:38:24.770Z,11.80
2023-04-09T19:40:51.528Z,11.80
2023-04-09T19:43:18.451Z,11.70
2023-04-09T19:45:45.388Z,11.70
2023-04-09T19:48:13.014Z,11.60
2023-04-09T19:50:41.280Z,11.50
2023-04-09T19:53:08.621Z,11.40
2023-04-09T19:55:35.951Z,11.30
2023-04-09T19:58:03.503Z,11.30
2023-04-09T20:00:30.611Z,11.30
2023-04-09T20:02:58.051Z,11.20
2023-04-09T20:05:25.129Z,11.00
2023-04-09T20:07:52.900Z,11.00
2023-04-09T20:10:20.070Z,10.90
2023-04-09T20:12:48.566Z,10.90
2023-04-09T20:15:17.423Z,10.90
2023-04-09T20:17:44.356Z,10.90
2023-04-09T20:20:12.149Z,10.80
2023-04-09T20:22:43.294Z,10.70
2023-04-09T20:25:11.910Z,10.70
2023-04-09T20:27:38.943Z,10.50
2023-04-09T20:30:07.144Z,10.50
2023-04-09T20:32:35.902Z,10.50
2023-04-09T20:35:02.764Z,10.40
2023-04-09T20:37:29.538Z,10.30
2023-04-09T20:39:56.548Z,10.20
2023-04-09T20:42:23.271Z,10.20
2023-04-09T20:44:50.093Z,10.10
2023-04-09T20:47:17.003Z,10.10
2023-04-09T20:49:43.734Z,10.10
2023-04-09T20:52:10.708Z,10.00
2023-04-09T20:54:37.486Z,10.00
2023-04-09T20:57:05.655Z,10.00
2023-04-09T20:59:32.522Z,9.90
2023-04-09T21:01:59.370Z,9.90
2023-04-09T21:04:26.339Z,9.90
2023-04-09T21:06:53.982Z,9.80
2023-04-09T21:09:20.878Z,9.80
2023-04-09T21:11:47.790Z,9.70
2023-04-09T21:14:14.793Z,9.80
2023-04-09T21:16:41.879Z,9.70
2023-04-09T21:19:08.723Z,9.70
2023-04-09T21:21:36.733Z,9.60
2023-04-09T21:24:04.058Z,9.50
2023-04-09T21:26:38.639Z,9.50
2023-04-09T21:29:16.810Z,9.40
2023-04-09T21:31:43.774Z,9.40
2023-04-09T21:34:10.629Z,9.30
2023-04-09T21:36:39.526Z,9.30
2023-04-09T21:39:07.070Z,9.30
2023-04-09T21:41:33.846Z,9.20
2023-04-09T21:44:07.873Z,9.10
2023-04-09T21:46:38.205Z,9.00
2023-04-09T21:49:05.091Z,9.00
2023-04-09T21:51:32.330Z,9.10
2023-04-09T21:54:06.205Z,8.90
2023-04-09T21:56:33.963Z,8.90
2023-04-09T21:59:03.450Z,8.90
2023-04-09T22:01:34.910Z,8.80
2023-04-09T22:04:02.308Z,8.80
2023-04-09T22:06:29.743Z,8.70
2023-04-09T22:08:58.212Z,8.70
2023-04-09T22:11:27.515Z,8.70
2023-04-09T22:13:56.550Z,8.60
2023-04-09T22:16:24.324Z,8.70
2023-04-09T22:18:51.758Z,8.60
2023-04-09T22:21:18.754Z,8.60
2023-04-09T22:23:45.814Z,8.60
2023-04-09T22:26:12.571Z,8.50
2023-04-09T22:28:39.405Z,8.40
2023-04-09T22:31:06.605Z,8.20
2023-04-09T22:33:33.411Z,8.30
2023-04-09T22:36:00.458Z,8.30
2023-04-09T22:38:27.971Z,8.20
2023-04-09T22:40:54.768Z,8.20
2023-04-09T22:43:21.484Z,8.20
2023-04-09T22:45:54.922Z,8.10
2023-04-09T22:48:22.946Z,8.00
2023-04-09T22:50:50.369Z,8.00
2023-04-09T22:53:20.932Z,8.00
2023-04-09T22:55:51.726Z,8.00
2023-04-09T22:58:19.071Z,8.00
2023-04-09T23:00:47.411Z,7.90
2023-04-09T23:03:14.596Z,7.80
2023-04-09T23:05:42.084Z,7.70
2023-04-09T23:08:09.397Z,7.70
2023-04-09T23:10:36.460Z,7.60
2023-04-09T23:13:03.522Z,7.60
2023-04-09T23:15:30.346Z,7.70
2023-04-09T23:17:57.245Z,7.60
2023-04-09T23:20:24.230Z,7.70
2023-04-09T23:22:51.092Z,7.60
2023-04-09T23:25:18.291Z,7.50
2023-04-09T23:27:45.262Z,7.50
2023-04-09T23:30:16.550Z,7.50
2023-04-09T23:32:46.781Z,7.40
2023-04-09T23:35:14.144Z,7.50
2023-04-09T23:37:42.579Z,7.40
2023-04-09T23:40:10.645Z,7.30
2023-04-09T23:42:37.417Z,7.30
2023-04-09T23:45:05.790Z,7.20
2023-04-09T23:47:34.816Z,7.20
2023-04-09T23:50:05.720Z,7.00
2023-04-09T23:52:35.561Z,7.00
2023-04-09T23:55:03.570Z,7.00
2023-04-09T23:57:30.386Z,7.00
2023-04-09T23:59:57.395Z,7.00
